Etusivu
METAR-TAF:

METAR-TAF

Lentoasemat :

Medicine Lodge Airport

Medicine Lodge, Kansas, Yhdysvallat

Leveyspiiri: 37-17-02N, Pituuspiiri: 098-33-10W, korkeus merenpinnasta: 469 m

Tämänhetkinen sää

Tämä raportti tehtiin 41 minuuttia sitten, kello 22.56 UTC
Tuuli 15 kn etelästä puuskistuen 21 kn:hen
Lämpötila 37°C
Kosteus 33%
Ilmanpaine 1009 hPa

METAR: KP28 242256Z AUTO 18015G21KT 37/18 A2981 RMK AO1 PK WND 17026/2202 SLP072 T03720183 $

Aika: 18:37 (23:37 UTC)


TAF: puuttuu

Säähavainnot ja -ennusteet yli 4000 lentoasemalta (METAR- ja TAF-raportit).

Käytössä olevat sääasemat on merkitty karttaan keltaisilla ja punaisilla pisteillä.

Aseta hiiri pisteen päälle nähdäksesi sääaseman nimen.

Klikkaa sitten nähdäksesi säähavainnot ja -ennusteet.

Kartan vaihtaminen: klikkaa mustalla rastilla varustettuja vihreitä pisteitä, niin voit zoomata sisään; viivalla varustettua vihreää pistettä, niin voit zoomata ulos tai vihreitä nuolia, niin pääset viereisille kartoille.


METAR-TAF: